Hovedside
METAR-TAF:

METAR-TAF

Lufthavner :

Kristianstad, Sverige

breddegrad: 55-55N, lengdegrad: 014-05E, høyde over havet: 23 m

Gjeldene værobservasjon

Denne rapporten ble laget for 23 minutter siden, klokken 11:50 UTC
Vind 10 kt fra Vest, skiftende mellom Vest-sørvest og Vest-nordvest
Temperatur 6°C
Luftfuktighet 61%
Trykk 1010 hPa
Sikt 10 km eller mer
Få skyer i en høyde av 2200 ft

METAR: ESMK 241150Z 27010KT 240V300 9999 FEW022 06/M01 Q1010

Tid: 13:13 (12:13 UTC)

Varsel

Denne rapporten ble laget for 1 time og 6 minutter siden, klokken 11:07 UTC
Varsel gyldig fra 24. klokken 12 UTC til 24. klokken 20 UTC
Vind 10 kt fra Vest
Sikt 10 km eller mer
Få skyer i en høyde av 2500 ft
Blir
fra 24. klokken 18 UTC til 24. klokken 20 UTC
Vind 8 kt fra Sør

TAF: ESMK 241107Z 2412/2420 26010KT 9999 FEW025 BECMG 2418/2420 18008KT

Værobservasjoner og værvarsel for over 4000 flyplasser (METAR- og TAF-rapporter).

Tilgjengelige stasjoner er representert av de røde og gule prikkene på kartet.

Hold musepekeren over prikken for å se navnet på stasjonen.

Klikk så for å se værobservasjoner og -varsler.

For å forandre kartet kan du klikke på den grønne knappen med svart kryss for å zoome inn, på den grønne knappen med strek for å zoome ut, eller på de grønne pilene for å se tilstøtende kart.


METAR-TAF: